Ifestos I — SV4139 — position and weather

sailwx.info

Track history (hours):
 
Tides and Currents Weather Stations Pressure Air Temp Water Temp Dewpoint Dewpoint Depression Visibility Wind Speed Wind Dir Waves Ship Positions

Ifestos I

Last reported at 2018-Jan-05 01:54 UTC. Time now 2018-Jan-19 06:03 UTC.
Position N 37°57' E 023°37'.
Warning: this ship's position is 14 days out of date.

Length 30 m.

Type: Tug. MMSI: 237070500.

Date/timePositionNaut miles runAvg speedWind from/ knotsBaromVisibWave heightAir tempDewpointWater temp
2018-Jan-05 01:54N 37°57' E 023°37'0 0.0
2018-Jan-05 01:31N 37°57' E 023°37'1 2.0
2018-Jan-05 01:01N 37°57' E 023°35'1 1.1
2018-Jan-05 00:30N 37°57' E 023°36'1 1.0
2018-Jan-05 00:00N 37°57' E 023°37'0 0.0
2018-Jan-04 23:30N 37°57' E 023°37'0 0.0
2018-Jan-04 23:01N 37°57' E 023°37'0 0.0
2018-Jan-04 22:30N 37°57' E 023°37'0 0.0
2018-Jan-04 22:01N 37°57' E 023°37'0 0.0
2018-Jan-04 21:30N 37°57' E 023°37'3 5.9
2018-Jan-04 21:00N 37°58' E 023°33'4 8.5
2018-Jan-04 20:30N 38°02' E 023°36'0 0.4
2018-Jan-04 20:00N 38°01' E 023°35'1 3.0
2018-Jan-04 19:30N 38°01' E 023°34'3 5.3
2018-Jan-04 19:00N 37°58' E 023°33'1 1.9
2018-Jan-04 18:31N 37°58' E 023°34'0 0.0
2018-Jan-04 18:01N 37°58' E 023°34'0 0.0
2018-Jan-04 17:31N 37°58' E 023°34'0 0.0
2018-Jan-04 17:01N 37°58' E 023°34'0 0.0
2018-Jan-04 16:31N 37°58' E 023°34'0 0.0
2018-Jan-04 16:01N 37°58' E 023°34'0 0.0
2018-Jan-04 15:30N 37°58' E 023°34'1 1.0
2018-Jan-04 15:00N 37°58' E 023°33'2 4.7
2018-Jan-04 14:31N 37°57' E 023°36'0 0.9
2018-Jan-04 14:01N 37°57' E 023°37'0 0.0
2018-Jan-04 13:31N 37°57' E 023°37'1 1.8
2018-Jan-04 13:00N 37°57' E 023°36'0 0.7
2018-Jan-04 12:31N 37°57' E 023°36'1 0.1
2018-Jan-03 22:08N 37°57' E 023°37'0 1.5
2018-Jan-03 22:00N 37°57' E 023°36'0 0.9
2018-Jan-03 21:30N 37°57' E 023°36'1 1.4
2018-Jan-03 21:00N 37°57' E 023°37'1 1.6
2018-Jan-03 20:30N 37°57' E 023°36'1 1.8
2018-Jan-03 20:00N 37°57' E 023°36'0 0.4
2018-Jan-03 19:30N 37°56' E 023°36'1 2.2
2018-Jan-03 19:00N 37°57' E 023°35'1 2.8
2018-Jan-03 18:30N 37°56' E 023°35'1 2.4
2018-Jan-03 18:00N 37°57' E 023°35'0 0.5
2018-Jan-03 17:30N 37°57' E 023°35'1 2.1
2018-Jan-03 17:00N 37°57' E 023°37'0 0.0
2018-Jan-03 16:30N 37°57' E 023°37'0 0.0
2018-Jan-03 16:00N 37°57' E 023°37'3 6.8
2018-Jan-03 15:30N 37°59' E 023°33'4 7.2
2018-Jan-03 15:00N 38°02' E 023°31'0 0.6
2018-Jan-03 14:30N 38°02' E 023°31'1 1.7
2018-Jan-03 14:00N 38°01' E 023°31'2 4.8
2018-Jan-03 13:31N 37°59' E 023°33'2 4.8
2018-Jan-03 13:00N 37°57' E 023°35'0 0.3
2018-Jan-03 12:31N 37°57' E 023°35'2 3.0
2018-Jan-03 12:00N 37°57' E 023°37'0 0.0
2018-Jan-02 23:37N 37°57' E 023°37'0 2.0
2018-Jan-02 23:30N 37°57' E 023°36'1 2.5
2018-Jan-02 23:01N 37°57' E 023°35'1 3.0
2018-Jan-02 22:30N 37°57' E 023°37'0 0.0
2018-Jan-02 22:00N 37°57' E 023°37'2 3.0
2018-Jan-02 21:31N 37°57' E 023°35'0 0.2
2018-Jan-02 21:00N 37°57' E 023°35'0 0.4
2018-Jan-02 20:31N 37°57' E 023°35'0 1.0
2018-Jan-02 20:01N 37°57' E 023°36'1 1.7
2018-Jan-02 19:31N 37°57' E 023°37'0 0.0
2018-Jan-02 19:01N 37°57' E 023°37'0 0.0
2018-Jan-02 18:31N 37°57' E 023°37'0 0.0
2018-Jan-02 18:01N 37°57' E 023°37'0 0.0
2018-Jan-02 17:31N 37°57' E 023°37'0 0.0
2018-Jan-02 17:01N 37°57' E 023°37'0 0.0
2018-Jan-02 16:30N 37°57' E 023°37'0 1.0
2018-Jan-02 16:01N 37°57' E 023°36'0 0.8
2018-Jan-02 15:31N 37°58' E 023°36'0 0.5
2018-Jan-02 15:01N 37°57' E 023°36'1 1.2
2018-Jan-02 14:31N 37°57' E 023°35'0 0.0
2018-Jan-02 14:01N 37°57' E 023°35'0 0.7
2018-Jan-02 13:31N 37°57' E 023°35'2 3.3
2018-Jan-02 13:01N 37°56' E 023°36'2 3.0
2018-Jan-02 12:30N 37°57' E 023°37'1 2.2
2018-Jan-02 12:01N 37°57' E 023°35'1 2.1
2018-Jan-02 11:30N 37°58' E 023°37'0 0.1
2018-Jan-02 11:01N 37°57' E 023°37'0 0.0
2018-Jan-02 00:19N 37°57' E 023°37'1 4.7
2018-Jan-02 00:01N 37°57' E 023°35'1 2.3
2018-Jan-01 23:31N 37°57' E 023°36'1 2.3
2018-Jan-01 23:01N 37°57' E 023°35'0 0.7
2018-Jan-01 22:31N 37°57' E 023°35'1 1.4
2018-Jan-01 22:01N 37°57' E 023°36'1 1.1
2018-Jan-01 21:31N 37°57' E 023°35'0 0.9
2018-Jan-01 21:01N 37°57' E 023°35'1 2.8
2018-Jan-01 20:31N 37°58' E 023°36'0 0.6
2018-Jan-01 20:01N 37°57' E 023°36'0 1.0
2018-Jan-01 19:31N 37°57' E 023°36'2 4.8
2018-Jan-01 19:01N 37°55' E 023°35'3 6.8
2018-Jan-01 18:31N 37°52' E 023°33'1 2.0
2018-Jan-01 18:01N 37°52' E 023°34'2 3.5
2018-Jan-01 17:31N 37°52' E 023°36'5 2.0
2018-Jan-01 15:01N 37°57' E 023°36'0 0.8
2018-Jan-01 14:31N 37°57' E 023°36'1 2.2
2018-Jan-01 14:01N 37°56' E 023°36'1 2.3
2018-Jan-01 13:31N 37°57' E 023°36'0 0.4
2018-Jan-01 13:01N 37°57' E 023°36'1 0.6
2018-Jan-01 12:01N 37°57' E 023°37'0 0.0
2017-Dec-31 17:41N 37°57' E 023°37'1 3.5
2017-Dec-31 17:30N 37°57' E 023°36'4 7.1
2017-Dec-31 17:00N 38°00' E 023°33'2 4.4
2017-Dec-31 16:31N 38°01' E 023°36'0 0.0
2017-Dec-31 16:01N 38°01' E 023°36'0 0.0
2017-Dec-31 15:30N 38°01' E 023°36'0 0.0
2017-Dec-31 15:00N 38°01' E 023°36'0 0.0
2017-Dec-31 14:31N 38°01' E 023°36'0 0.0
2017-Dec-31 14:00N 38°01' E 023°36'0 0.0
2017-Dec-31 13:31N 38°01' E 023°36'0 0.0
2017-Dec-31 13:00N 38°01' E 023°36'0 0.0
2017-Dec-31 12:30N 38°01' E 023°36'0 0.0
2017-Dec-31 12:01N 38°01' E 023°36'0 0.0
2017-Dec-31 11:30N 38°01' E 023°36'0 0.0
2017-Dec-31 11:00N 38°01' E 023°36'0 0.0
2017-Dec-31 10:30N 38°01' E 023°36'0 0.0
2017-Dec-31 10:00N 38°01' E 023°36'0 0.0
2017-Dec-31 09:30N 38°01' E 023°36'0 0.0
2017-Dec-31 09:00N 38°01' E 023°36'0 0.0
2017-Dec-31 08:30N 38°01' E 023°36'0 0.0
2017-Dec-31 08:00N 38°01' E 023°36'0 0.0
2017-Dec-31 07:30N 38°01' E 023°36'0 0.0
2017-Dec-31 07:00N 38°01' E 023°36'0 0.0
2017-Dec-31 06:30N 38°01' E 023°36'0 0.0
2017-Dec-31 06:00N 38°01' E 023°36'0 0.0
2017-Dec-31 05:30N 38°01' E 023°36'0 0.0
2017-Dec-31 05:00N 38°01' E 023°36'0 0.0
2017-Dec-31 04:30N 38°01' E 023°36'0 0.0
2017-Dec-31 04:00N 38°01' E 023°36'0 0.0
2017-Dec-31 03:30N 38°01' E 023°36'0 0.0
2017-Dec-31 03:00N 38°01' E 023°36'0 0.0
2017-Dec-31 02:30N 38°01' E 023°36'0 0.0
2017-Dec-31 02:00N 38°01' E 023°36'0 0.0
2017-Dec-31 01:30N 38°01' E 023°36'0 0.0
2017-Dec-31 01:01N 38°01' E 023°36'0 0.0
2017-Dec-31 00:30N 38°01' E 023°36'0 0.0
2017-Dec-31 00:01N 38°01' E 023°36'0 0.0
2017-Dec-30 23:30N 38°01' E 023°36'0 0.0
2017-Dec-30 23:01N 38°01' E 023°36'0 0.0
2017-Dec-30 22:30N 38°01' E 023°36'0 0.0
2017-Dec-30 22:01N 38°01' E 023°36'0 0.0
2017-Dec-30 21:30N 38°01' E 023°36'0 0.0
2017-Dec-30 21:00N 38°01' E 023°36'0 0.0
2017-Dec-30 20:31N 38°01' E 023°36'0 0.0
2017-Dec-30 20:01N 38°01' E 023°36'0 0.0
2017-Dec-30 19:31N 38°01' E 023°36'0 0.0
2017-Dec-30 19:01N 38°01' E 023°36'0 0.0
2017-Dec-30 18:30N 38°01' E 023°36'0 0.0
2017-Dec-30 18:00N 38°01' E 023°36'0 0.0
2017-Dec-30 17:31N 38°01' E 023°36'0 0.0
2017-Dec-30 17:00N 38°01' E 023°36'0 0.0
2017-Dec-30 16:30N 38°01' E 023°36'0 0.0
2017-Dec-30 16:00N 38°01' E 023°36'0 0.0
2017-Dec-30 15:30N 38°01' E 023°36'0 0.0
2017-Dec-30 15:00N 38°01' E 023°36'0 0.0
2017-Dec-30 14:30N 38°01' E 023°36'0 0.0
2017-Dec-30 14:00N 38°01' E 023°36'0 0.0
2017-Dec-30 13:30N 38°01' E 023°36'0 0.0
2017-Dec-30 13:00N 38°01' E 023°36'0 0.0
2017-Dec-30 12:30N 38°01' E 023°36'0 0.0
2017-Dec-30 12:00N 38°01' E 023°36'0 0.0
2017-Dec-30 11:30N 38°01' E 023°36'0 0.0
2017-Dec-30 11:00N 38°01' E 023°36'0 0.5
2017-Dec-30 10:30N 38°02' E 023°36'0 0.6
2017-Dec-30 10:00N 38°02' E 023°35'0 0.6
2017-Dec-30 09:30N 38°02' E 023°36'0 0.4
2017-Dec-30 09:00N 38°01' E 023°36'0 0.0
2017-Dec-30 08:30N 38°01' E 023°36'0 0.0
2017-Dec-30 08:01N 38°01' E 023°36'0 0.0
2017-Dec-30 07:30N 38°01' E 023°36'0 0.0
2017-Dec-30 07:01N 38°01' E 023°36'2 4.1
2017-Dec-30 06:30N 38°00' E 023°33'3 6.5
2017-Dec-30 06:00N 37°57' E 023°35'1 1.4
2017-Dec-30 05:30N 37°57' E 023°36'1 1.4
2017-Dec-30 05:00N 37°57' E 023°36'1 1.7
2017-Dec-30 04:30N 37°57' E 023°37'0 0.0
2017-Dec-30 04:00N 37°57' E 023°37'0 0.0
2017-Dec-29 11:46N 37°57' E 023°37'0 0.0
2017-Dec-29 11:30N 37°57' E 023°37'0 0.2
2017-Dec-29 11:00N 37°57' E 023°37'0 0.0
2017-Dec-29 10:30N 37°57' E 023°37'0 0.0
2017-Dec-29 10:00N 37°57' E 023°37'0 0.5
2017-Dec-29 09:30N 37°57' E 023°36'0 0.4
2017-Dec-29 09:00N 37°58' E 023°36'0 0.7
2017-Dec-29 08:30N 37°57' E 023°36'0 0.5
2017-Dec-29 08:00N 37°57' E 023°36'0 0.7
2017-Dec-29 07:30N 37°57' E 023°36'1 1.0
2017-Dec-29 07:00N 37°57' E 023°36'1 2.0
2017-Dec-29 06:30N 37°56' E 023°36'1 1.7
2017-Dec-29 06:00N 37°57' E 023°36'0 0.6
2017-Dec-29 05:30N 37°57' E 023°36'1 1.5
2017-Dec-29 05:00N 37°57' E 023°37'0 0.1
2017-Dec-29 04:30N 37°57' E 023°37'0 0.0
2017-Dec-28 14:56N 37°57' E 023°37'0 0.0
2017-Dec-28 14:30N 37°57' E 023°37'0 0.0
2017-Dec-28 14:00N 37°57' E 023°37'0 0.0
2017-Dec-28 13:30N 37°57' E 023°37'0 0.0
2017-Dec-28 13:00N 37°57' E 023°37'0 0.0
2017-Dec-28 12:30N 37°57' E 023°37'0 0.0
2017-Dec-28 12:00N 37°57' E 023°37'0 0.0
2017-Dec-28 11:30N 37°57' E 023°37'0 0.0
2017-Dec-28 11:00N 37°57' E 023°37'0 0.0
2017-Dec-28 10:30N 37°57' E 023°37'2 3.5
2017-Dec-28 10:00N 37°58' E 023°34'0 0.0
2017-Dec-28 09:30N 37°58' E 023°34'2 3.3
2017-Dec-28 09:00N 37°57' E 023°36'2 3.3
2017-Dec-28 08:30N 37°58' E 023°34'0 0.0
2017-Dec-28 08:00N 37°58' E 023°34'0 0.0
2017-Dec-28 07:30N 37°58' E 023°34'0 0.0
2017-Dec-28 07:00N 37°58' E 023°34'0 0.0
2017-Dec-28 06:30N 37°58' E 023°34'0 0.0
2017-Dec-28 06:00N 37°58' E 023°34'1 2.0
2017-Dec-28 05:30N 37°57' E 023°36'0 0.5
2017-Dec-28 05:00N 37°57' E 023°36'1 1.7
2017-Dec-28 04:30N 37°57' E 023°37'0 0.0
2017-Dec-27 11:58N 37°57' E 023°37'0 0.1
2017-Dec-27 11:30N 37°57' E 023°37'0 0.7
2017-Dec-27 11:00N 37°57' E 023°36'0 0.1
2017-Dec-27 10:30N 37°57' E 023°36'1 1.3
2017-Dec-27 10:01N 37°57' E 023°36'1 1.9
2017-Dec-27 09:30N 37°57' E 023°37'0 0.0
2017-Dec-27 09:00N 37°57' E 023°37'1 1.5
2017-Dec-27 08:30N 37°57' E 023°36'0 0.2
2017-Dec-27 08:01N 37°57' E 023°36'0 0.4
2017-Dec-27 07:30N 37°58' E 023°36'1 1.6
2017-Dec-27 07:01N 37°57' E 023°37'0 0.1
2017-Dec-27 06:30N 37°58' E 023°37'1 1.1
2017-Dec-27 06:00N 37°57' E 023°36'0 0.7
2017-Dec-27 05:30N 37°57' E 023°36'1 1.2
2017-Dec-27 05:00N 37°57' E 023°35'0 0.4
2017-Dec-27 04:30N 37°57' E 023°35'1 2.2
2017-Dec-27 04:00N 37°57' E 023°37'0 0.0
2017-Dec-26 11:59N 37°57' E 023°37'0 0.0
2017-Dec-26 11:31N 37°57' E 023°37'0 0.0
2017-Dec-26 11:01N 37°57' E 023°37'0 0.0
2017-Dec-26 10:31N 37°57' E 023°37'0 0.0
2017-Dec-26 10:01N 37°57' E 023°37'0 0.0
2017-Dec-26 09:31N 37°57' E 023°37'0 0.0
2017-Dec-26 09:01N 37°57' E 023°37'0 0.0
2017-Dec-26 08:31N 37°57' E 023°37'0 0.0
2017-Dec-26 08:01N 37°57' E 023°37'0 0.0
2017-Dec-26 07:31N 37°57' E 023°37'0 0.0
2017-Dec-26 07:01N 37°57' E 023°37'0 0.8
2017-Dec-26 06:30N 37°58' E 023°36'1 1.7
2017-Dec-26 06:01N 37°57' E 023°36'1 1.1
2017-Dec-26 05:31N 37°57' E 023°35'1 2.8
2017-Dec-26 05:01N 37°57' E 023°37'0 0.0
2017-Dec-26 04:31N 37°57' E 023°37'0 0.0
2017-Dec-26 04:00N 37°57' E 023°37'  
Track history (hours):
 
Tides and Currents Weather Stations Pressure Air Temp Water Temp Dewpoint Dewpoint Depression Visibility Wind Speed Wind Dir Waves Ship Positions

Ifestos I

Last reported at 2018-Jan-05 01:54 UTC. Time now 2018-Jan-19 06:03 UTC.
Position N 37°57' E 023°37'.
Warning: this ship's position is 14 days out of date.

Length 30 m.

Type: Tug. MMSI: 237070500.

Date/timePositionNaut miles runAvg speedWind from/ knotsBaromVisibWave heightAir tempDewpointWater temp
2018-Jan-05 01:54N 37°57' E 023°37'0 0.0
2018-Jan-05 01:31N 37°57' E 023°37'1 2.0
2018-Jan-05 01:01N 37°57' E 023°35'1 1.1
2018-Jan-05 00:30N 37°57' E 023°36'1 1.0
2018-Jan-05 00:00N 37°57' E 023°37'0 0.0
2018-Jan-04 23:30N 37°57' E 023°37'0 0.0
2018-Jan-04 23:01N 37°57' E 023°37'0 0.0
2018-Jan-04 22:30N 37°57' E 023°37'0 0.0
2018-Jan-04 22:01N 37°57' E 023°37'0 0.0
2018-Jan-04 21:30N 37°57' E 023°37'3 5.9
2018-Jan-04 21:00N 37°58' E 023°33'4 8.5
2018-Jan-04 20:30N 38°02' E 023°36'0 0.4
2018-Jan-04 20:00N 38°01' E 023°35'1 3.0
2018-Jan-04 19:30N 38°01' E 023°34'3 5.3
2018-Jan-04 19:00N 37°58' E 023°33'1 1.9
2018-Jan-04 18:31N 37°58' E 023°34'0 0.0
2018-Jan-04 18:01N 37°58' E 023°34'0 0.0
2018-Jan-04 17:31N 37°58' E 023°34'0 0.0
2018-Jan-04 17:01N 37°58' E 023°34'0 0.0
2018-Jan-04 16:31N 37°58' E 023°34'0 0.0
2018-Jan-04 16:01N 37°58' E 023°34'0 0.0
2018-Jan-04 15:30N 37°58' E 023°34'1 1.0
2018-Jan-04 15:00N 37°58' E 023°33'2 4.7
2018-Jan-04 14:31N 37°57' E 023°36'0 0.9
2018-Jan-04 14:01N 37°57' E 023°37'0 0.0
2018-Jan-04 13:31N 37°57' E 023°37'1 1.8
2018-Jan-04 13:00N 37°57' E 023°36'0 0.7
2018-Jan-04 12:31N 37°57' E 023°36'1 0.1
2018-Jan-03 22:08N 37°57' E 023°37'0 1.5
2018-Jan-03 22:00N 37°57' E 023°36'0 0.9
2018-Jan-03 21:30N 37°57' E 023°36'1 1.4
2018-Jan-03 21:00N 37°57' E 023°37'1 1.6
2018-Jan-03 20:30N 37°57' E 023°36'1 1.8
2018-Jan-03 20:00N 37°57' E 023°36'0 0.4
2018-Jan-03 19:30N 37°56' E 023°36'1 2.2
2018-Jan-03 19:00N 37°57' E 023°35'1 2.8
2018-Jan-03 18:30N 37°56' E 023°35'1 2.4
2018-Jan-03 18:00N 37°57' E 023°35'0 0.5
2018-Jan-03 17:30N 37°57' E 023°35'1 2.1
2018-Jan-03 17:00N 37°57' E 023°37'0 0.0
2018-Jan-03 16:30N 37°57' E 023°37'0 0.0
2018-Jan-03 16:00N 37°57' E 023°37'3 6.8
2018-Jan-03 15:30N 37°59' E 023°33'4 7.2
2018-Jan-03 15:00N 38°02' E 023°31'0 0.6
2018-Jan-03 14:30N 38°02' E 023°31'1 1.7
2018-Jan-03 14:00N 38°01' E 023°31'2 4.8
2018-Jan-03 13:31N 37°59' E 023°33'2 4.8
2018-Jan-03 13:00N 37°57' E 023°35'0 0.3
2018-Jan-03 12:31N 37°57' E 023°35'2 3.0
2018-Jan-03 12:00N 37°57' E 023°37'0 0.0
2018-Jan-02 23:37N 37°57' E 023°37'0 2.0
2018-Jan-02 23:30N 37°57' E 023°36'1 2.5
2018-Jan-02 23:01N 37°57' E 023°35'1 3.0
2018-Jan-02 22:30N 37°57' E 023°37'0 0.0
2018-Jan-02 22:00N 37°57' E 023°37'2 3.0
2018-Jan-02 21:31N 37°57' E 023°35'0 0.2
2018-Jan-02 21:00N 37°57' E 023°35'0 0.4
2018-Jan-02 20:31N 37°57' E 023°35'0 1.0
2018-Jan-02 20:01N 37°57' E 023°36'1 1.7
2018-Jan-02 19:31N 37°57' E 023°37'0 0.0
2018-Jan-02 19:01N 37°57' E 023°37'0 0.0
2018-Jan-02 18:31N 37°57' E 023°37'0 0.0
2018-Jan-02 18:01N 37°57' E 023°37'0 0.0
2018-Jan-02 17:31N 37°57' E 023°37'0 0.0
2018-Jan-02 17:01N 37°57' E 023°37'0 0.0
2018-Jan-02 16:30N 37°57' E 023°37'0 1.0
2018-Jan-02 16:01N 37°57' E 023°36'0 0.8
2018-Jan-02 15:31N 37°58' E 023°36'0 0.5
2018-Jan-02 15:01N 37°57' E 023°36'1 1.2
2018-Jan-02 14:31N 37°57' E 023°35'0 0.0
2018-Jan-02 14:01N 37°57' E 023°35'0 0.7
2018-Jan-02 13:31N 37°57' E 023°35'2 3.3
2018-Jan-02 13:01N 37°56' E 023°36'2 3.0
2018-Jan-02 12:30N 37°57' E 023°37'1 2.2
2018-Jan-02 12:01N 37°57' E 023°35'1 2.1
2018-Jan-02 11:30N 37°58' E 023°37'0 0.1
2018-Jan-02 11:01N 37°57' E 023°37'0 0.0
2018-Jan-02 00:19N 37°57' E 023°37'1 4.7
2018-Jan-02 00:01N 37°57' E 023°35'1 2.3
2018-Jan-01 23:31N 37°57' E 023°36'1 2.3
2018-Jan-01 23:01N 37°57' E 023°35'0 0.7
2018-Jan-01 22:31N 37°57' E 023°35'1 1.4
2018-Jan-01 22:01N 37°57' E 023°36'1 1.1
2018-Jan-01 21:31N 37°57' E 023°35'0 0.9
2018-Jan-01 21:01N 37°57' E 023°35'1 2.8
2018-Jan-01 20:31N 37°58' E 023°36'0 0.6
2018-Jan-01 20:01N 37°57' E 023°36'0 1.0
2018-Jan-01 19:31N 37°57' E 023°36'2 4.8
2018-Jan-01 19:01N 37°55' E 023°35'3 6.8
2018-Jan-01 18:31N 37°52' E 023°33'1 2.0
2018-Jan-01 18:01N 37°52' E 023°34'2 3.5
2018-Jan-01 17:31N 37°52' E 023°36'5 2.0
2018-Jan-01 15:01N 37°57' E 023°36'0 0.8
2018-Jan-01 14:31N 37°57' E 023°36'1 2.2
2018-Jan-01 14:01N 37°56' E 023°36'1 2.3
2018-Jan-01 13:31N 37°57' E 023°36'0 0.4
2018-Jan-01 13:01N 37°57' E 023°36'1 0.6
2018-Jan-01 12:01N 37°57' E 023°37'0 0.0
2017-Dec-31 17:41N 37°57' E 023°37'1 3.5
2017-Dec-31 17:30N 37°57' E 023°36'4 7.1
2017-Dec-31 17:00N 38°00' E 023°33'2 4.4
2017-Dec-31 16:31N 38°01' E 023°36'0 0.0
2017-Dec-31 16:01N 38°01' E 023°36'0 0.0
2017-Dec-31 15:30N 38°01' E 023°36'0 0.0
2017-Dec-31 15:00N 38°01' E 023°36'0 0.0
2017-Dec-31 14:31N 38°01' E 023°36'0 0.0
2017-Dec-31 14:00N 38°01' E 023°36'0 0.0
2017-Dec-31 13:31N 38°01' E 023°36'0 0.0
2017-Dec-31 13:00N 38°01' E 023°36'0 0.0
2017-Dec-31 12:30N 38°01' E 023°36'0 0.0
2017-Dec-31 12:01N 38°01' E 023°36'0 0.0
2017-Dec-31 11:30N 38°01' E 023°36'0 0.0
2017-Dec-31 11:00N 38°01' E 023°36'0 0.0
2017-Dec-31 10:30N 38°01' E 023°36'0 0.0
2017-Dec-31 10:00N 38°01' E 023°36'0 0.0
2017-Dec-31 09:30N 38°01' E 023°36'0 0.0
2017-Dec-31 09:00N 38°01' E 023°36'0 0.0
2017-Dec-31 08:30N 38°01' E 023°36'0 0.0
2017-Dec-31 08:00N 38°01' E 023°36'0 0.0
2017-Dec-31 07:30N 38°01' E 023°36'0 0.0
2017-Dec-31 07:00N 38°01' E 023°36'0 0.0
2017-Dec-31 06:30N 38°01' E 023°36'0 0.0
2017-Dec-31 06:00N 38°01' E 023°36'0 0.0
2017-Dec-31 05:30N 38°01' E 023°36'0 0.0
2017-Dec-31 05:00N 38°01' E 023°36'0 0.0
2017-Dec-31 04:30N 38°01' E 023°36'0 0.0
2017-Dec-31 04:00N 38°01' E 023°36'0 0.0
2017-Dec-31 03:30N 38°01' E 023°36'0 0.0
2017-Dec-31 03:00N 38°01' E 023°36'0 0.0
2017-Dec-31 02:30N 38°01' E 023°36'0 0.0
2017-Dec-31 02:00N 38°01' E 023°36'0 0.0
2017-Dec-31 01:30N 38°01' E 023°36'0 0.0
2017-Dec-31 01:01N 38°01' E 023°36'0 0.0
2017-Dec-31 00:30N 38°01' E 023°36'0 0.0
2017-Dec-31 00:01N 38°01' E 023°36'0 0.0
2017-Dec-30 23:30N 38°01' E 023°36'0 0.0
2017-Dec-30 23:01N 38°01' E 023°36'0 0.0
2017-Dec-30 22:30N 38°01' E 023°36'0 0.0
2017-Dec-30 22:01N 38°01' E 023°36'0 0.0
2017-Dec-30 21:30N 38°01' E 023°36'0 0.0
2017-Dec-30 21:00N 38°01' E 023°36'0 0.0
2017-Dec-30 20:31N 38°01' E 023°36'0 0.0
2017-Dec-30 20:01N 38°01' E 023°36'0 0.0
2017-Dec-30 19:31N 38°01' E 023°36'0 0.0
2017-Dec-30 19:01N 38°01' E 023°36'0 0.0
2017-Dec-30 18:30N 38°01' E 023°36'0 0.0
2017-Dec-30 18:00N 38°01' E 023°36'0 0.0
2017-Dec-30 17:31N 38°01' E 023°36'0 0.0
2017-Dec-30 17:00N 38°01' E 023°36'0 0.0
2017-Dec-30 16:30N 38°01' E 023°36'0 0.0
2017-Dec-30 16:00N 38°01' E 023°36'0 0.0
2017-Dec-30 15:30N 38°01' E 023°36'0 0.0
2017-Dec-30 15:00N 38°01' E 023°36'0 0.0
2017-Dec-30 14:30N 38°01' E 023°36'0 0.0
2017-Dec-30 14:00N 38°01' E 023°36'0 0.0
2017-Dec-30 13:30N 38°01' E 023°36'0 0.0
2017-Dec-30 13:00N 38°01' E 023°36'0 0.0
2017-Dec-30 12:30N 38°01' E 023°36'0 0.0
2017-Dec-30 12:00N 38°01' E 023°36'0 0.0
2017-Dec-30 11:30N 38°01' E 023°36'0 0.0
2017-Dec-30 11:00N 38°01' E 023°36'0 0.5
2017-Dec-30 10:30N 38°02' E 023°36'0 0.6
2017-Dec-30 10:00N 38°02' E 023°35'0 0.6
2017-Dec-30 09:30N 38°02' E 023°36'0 0.4
2017-Dec-30 09:00N 38°01' E 023°36'0 0.0
2017-Dec-30 08:30N 38°01' E 023°36'0 0.0
2017-Dec-30 08:01N 38°01' E 023°36'0 0.0
2017-Dec-30 07:30N 38°01' E 023°36'0 0.0
2017-Dec-30 07:01N 38°01' E 023°36'2 4.1
2017-Dec-30 06:30N 38°00' E 023°33'3 6.5
2017-Dec-30 06:00N 37°57' E 023°35'1 1.4
2017-Dec-30 05:30N 37°57' E 023°36'1 1.4
2017-Dec-30 05:00N 37°57' E 023°36'1 1.7
2017-Dec-30 04:30N 37°57' E 023°37'0 0.0
2017-Dec-30 04:00N 37°57' E 023°37'0 0.0
2017-Dec-29 11:46N 37°57' E 023°37'0 0.0
2017-Dec-29 11:30N 37°57' E 023°37'0 0.2
2017-Dec-29 11:00N 37°57' E 023°37'0 0.0
2017-Dec-29 10:30N 37°57' E 023°37'0 0.0
2017-Dec-29 10:00N 37°57' E 023°37'0 0.5
2017-Dec-29 09:30N 37°57' E 023°36'0 0.4
2017-Dec-29 09:00N 37°58' E 023°36'0 0.7
2017-Dec-29 08:30N 37°57' E 023°36'0 0.5
2017-Dec-29 08:00N 37°57' E 023°36'0 0.7
2017-Dec-29 07:30N 37°57' E 023°36'1 1.0
2017-Dec-29 07:00N 37°57' E 023°36'1 2.0
2017-Dec-29 06:30N 37°56' E 023°36'1 1.7
2017-Dec-29 06:00N 37°57' E 023°36'0 0.6
2017-Dec-29 05:30N 37°57' E 023°36'1 1.5
2017-Dec-29 05:00N 37°57' E 023°37'0 0.1
2017-Dec-29 04:30N 37°57' E 023°37'0 0.0
2017-Dec-28 14:56N 37°57' E 023°37'0 0.0
2017-Dec-28 14:30N 37°57' E 023°37'0 0.0
2017-Dec-28 14:00N 37°57' E 023°37'0 0.0
2017-Dec-28 13:30N 37°57' E 023°37'0 0.0
2017-Dec-28 13:00N 37°57' E 023°37'0 0.0
2017-Dec-28 12:30N 37°57' E 023°37'0 0.0
2017-Dec-28 12:00N 37°57' E 023°37'0 0.0
2017-Dec-28 11:30N 37°57' E 023°37'0 0.0
2017-Dec-28 11:00N 37°57' E 023°37'0 0.0
2017-Dec-28 10:30N 37°57' E 023°37'2 3.5
2017-Dec-28 10:00N 37°58' E 023°34'0 0.0
2017-Dec-28 09:30N 37°58' E 023°34'2 3.3
2017-Dec-28 09:00N 37°57' E 023°36'2 3.3
2017-Dec-28 08:30N 37°58' E 023°34'0 0.0
2017-Dec-28 08:00N 37°58' E 023°34'0 0.0
2017-Dec-28 07:30N 37°58' E 023°34'0 0.0
2017-Dec-28 07:00N 37°58' E 023°34'0 0.0
2017-Dec-28 06:30N 37°58' E 023°34'0 0.0
2017-Dec-28 06:00N 37°58' E 023°34'1 2.0
2017-Dec-28 05:30N 37°57' E 023°36'0 0.5
2017-Dec-28 05:00N 37°57' E 023°36'1 1.7
2017-Dec-28 04:30N 37°57' E 023°37'0 0.0
2017-Dec-27 11:58N 37°57' E 023°37'0 0.1
2017-Dec-27 11:30N 37°57' E 023°37'0 0.7
2017-Dec-27 11:00N 37°57' E 023°36'0 0.1
2017-Dec-27 10:30N 37°57' E 023°36'1 1.3
2017-Dec-27 10:01N 37°57' E 023°36'1 1.9
2017-Dec-27 09:30N 37°57' E 023°37'0 0.0
2017-Dec-27 09:00N 37°57' E 023°37'1 1.5
2017-Dec-27 08:30N 37°57' E 023°36'0 0.2
2017-Dec-27 08:01N 37°57' E 023°36'0 0.4
2017-Dec-27 07:30N 37°58' E 023°36'1 1.6
2017-Dec-27 07:01N 37°57' E 023°37'0 0.1
2017-Dec-27 06:30N 37°58' E 023°37'1 1.1
2017-Dec-27 06:00N 37°57' E 023°36'0 0.7
2017-Dec-27 05:30N 37°57' E 023°36'1 1.2
2017-Dec-27 05:00N 37°57' E 023°35'0 0.4
2017-Dec-27 04:30N 37°57' E 023°35'1 2.2
2017-Dec-27 04:00N 37°57' E 023°37'0 0.0
2017-Dec-26 11:59N 37°57' E 023°37'0 0.0
2017-Dec-26 11:31N 37°57' E 023°37'0 0.0
2017-Dec-26 11:01N 37°57' E 023°37'0 0.0
2017-Dec-26 10:31N 37°57' E 023°37'0 0.0
2017-Dec-26 10:01N 37°57' E 023°37'0 0.0
2017-Dec-26 09:31N 37°57' E 023°37'0 0.0
2017-Dec-26 09:01N 37°57' E 023°37'0 0.0
2017-Dec-26 08:31N 37°57' E 023°37'0 0.0
2017-Dec-26 08:01N 37°57' E 023°37'0 0.0
2017-Dec-26 07:31N 37°57' E 023°37'0 0.0
2017-Dec-26 07:01N 37°57' E 023°37'0 0.8
2017-Dec-26 06:30N 37°58' E 023°36'1 1.7
2017-Dec-26 06:01N 37°57' E 023°36'1 1.1
2017-Dec-26 05:31N 37°57' E 023°35'1 2.8
2017-Dec-26 05:01N 37°57' E 023°37'0 0.0
2017-Dec-26 04:31N 37°57' E 023°37'0 0.0
2017-Dec-26 04:00N 37°57' E 023°37'  

Dump ship's entire track history